createdAt,value
2022-10-22T00:00:52.814Z,100.00
2022-10-22T00:03:19.262Z,100.00
2022-10-22T00:05:45.643Z,100.00
2022-10-22T00:08:12.073Z,100.00
2022-10-22T00:10:38.606Z,100.00
2022-10-22T00:13:05.126Z,100.00
2022-10-22T00:15:31.609Z,100.00
2022-10-22T00:17:57.982Z,100.00
2022-10-22T00:20:24.563Z,100.00
2022-10-22T00:25:18.372Z,100.00
2022-10-22T00:27:44.766Z,100.00
2022-10-22T00:30:11.804Z,100.00
2022-10-22T00:32:38.469Z,100.00
2022-10-22T00:35:05.551Z,100.00
2022-10-22T00:37:32.081Z,100.00
2022-10-22T00:39:58.506Z,100.00
2022-10-22T00:42:26.641Z,100.00
2022-10-22T00:45:11.376Z,100.00
2022-10-22T00:48:02.830Z,100.00
2022-10-22T00:50:33.032Z,100.00
2022-10-22T00:53:00.646Z,100.00
2022-10-22T00:55:28.890Z,100.00
2022-10-22T00:57:57.481Z,100.00
2022-10-22T01:00:24.622Z,100.00
2022-10-22T01:02:52.379Z,100.00
2022-10-22T01:05:19.544Z,100.00
2022-10-22T01:07:51.830Z,100.00
2022-10-22T01:10:38.907Z,100.00
2022-10-22T01:13:15.271Z,100.00
2022-10-22T01:15:50.778Z,100.00
2022-10-22T01:18:24.543Z,100.00
2022-10-22T01:21:08.047Z,100.00
2022-10-22T01:24:04.743Z,100.00
2022-10-22T01:26:34.026Z,100.00
2022-10-22T01:29:15.711Z,100.00
2022-10-22T01:31:48.515Z,100.00
2022-10-22T01:34:18.187Z,100.00
2022-10-22T01:36:46.701Z,100.00
2022-10-22T01:39:15.331Z,100.00
2022-10-22T01:41:45.370Z,100.00
2022-10-22T01:44:26.733Z,100.00
2022-10-22T01:47:18.565Z,100.00
2022-10-22T01:50:20.739Z,100.00
2022-10-22T01:53:05.965Z,100.00
2022-10-22T01:55:49.568Z,100.00
2022-10-22T01:58:45.136Z,100.00
2022-10-22T02:01:30.069Z,100.00
2022-10-22T02:04:03.032Z,100.00
2022-10-22T02:06:32.521Z,100.00
2022-10-22T02:09:00.737Z,100.00
2022-10-22T02:11:27.433Z,100.00
2022-10-22T02:13:58.569Z,100.00
2022-10-22T02:16:32.192Z,100.00
2022-10-22T02:19:01.982Z,100.00
2022-10-22T02:21:28.569Z,100.00
2022-10-22T02:23:55.073Z,100.00
2022-10-22T02:26:27.988Z,100.00
2022-10-22T02:29:18.962Z,100.00
2022-10-22T02:31:48.643Z,100.00
2022-10-22T02:34:21.505Z,100.00
2022-10-22T02:36:50.466Z,100.00
2022-10-22T02:39:19.828Z,100.00
2022-10-22T02:41:46.423Z,100.00
2022-10-22T02:44:13.141Z,100.00
2022-10-22T02:46:40.501Z,100.00
2022-10-22T02:49:06.923Z,100.00
2022-10-22T02:51:33.828Z,100.00
2022-10-22T02:54:00.265Z,100.00
2022-10-22T02:56:26.657Z,100.00
2022-10-22T02:58:53.075Z,100.00
2022-10-22T03:01:19.598Z,100.00
2022-10-22T03:03:46.064Z,100.00
2022-10-22T03:06:13.010Z,100.00
2022-10-22T03:08:40.174Z,100.00
2022-10-22T03:11:06.725Z,100.00
2022-10-22T03:13:33.193Z,100.00
2022-10-22T03:15:59.660Z,100.00
2022-10-22T03:18:26.099Z,100.00
2022-10-22T03:21:09.693Z,100.00
2022-10-22T03:23:37.317Z,100.00
2022-10-22T03:26:04.573Z,100.00
2022-10-22T03:28:31.044Z,100.00
2022-10-22T03:30:57.455Z,100.00
2022-10-22T03:33:23.866Z,100.00
2022-10-22T03:35:50.350Z,100.00
2022-10-22T03:38:16.943Z,100.00
2022-10-22T03:40:44.618Z,100.00
2022-10-22T03:43:11.386Z,100.00
2022-10-22T03:48:05.745Z,100.00
2022-10-22T03:50:32.137Z,100.00
2022-10-22T03:52:59.551Z,100.00
2022-10-22T03:55:26.165Z,100.00
2022-10-22T03:57:52.781Z,100.00
2022-10-22T04:00:19.219Z,100.00
2022-10-22T04:02:45.620Z,100.00
2022-10-22T04:05:12.013Z,100.00
2022-10-22T04:07:38.720Z,100.00
2022-10-22T04:10:05.786Z,100.00
2022-10-22T04:12:32.185Z,100.00
2022-10-22T04:14:58.607Z,100.00
2022-10-22T04:17:25.047Z,100.00
2022-10-22T04:19:51.480Z,100.00
2022-10-22T04:22:17.877Z,100.00
2022-10-22T04:24:44.314Z,100.00
2022-10-22T04:27:10.796Z,100.00
2022-10-22T04:29:37.185Z,100.00
2022-10-22T04:32:03.727Z,100.00
2022-10-22T04:34:30.250Z,100.00
2022-10-22T04:36:56.727Z,100.00
2022-10-22T04:39:23.155Z,100.00
2022-10-22T04:41:49.672Z,100.00
2022-10-22T04:44:18.234Z,100.00
2022-10-22T04:46:45.517Z,100.00
2022-10-22T04:49:11.947Z,100.00
2022-10-22T04:51:38.434Z,100.00
2022-10-22T04:54:05.334Z,100.00
2022-10-22T04:56:32.517Z,100.00
2022-10-22T04:59:05.024Z,100.00
2022-10-22T05:01:36.943Z,100.00
2022-10-22T05:04:08.032Z,100.00
2022-10-22T05:06:36.689Z,100.00
2022-10-22T05:09:07.038Z,100.00
2022-10-22T05:11:38.223Z,100.00
2022-10-22T05:14:07.681Z,100.00
2022-10-22T05:16:35.068Z,100.00
2022-10-22T05:19:02.518Z,100.00
2022-10-22T05:21:29.023Z,100.00
2022-10-22T05:23:59.766Z,100.00
2022-10-22T05:26:27.452Z,100.00
2022-10-22T05:28:53.862Z,100.00
2022-10-22T05:31:20.743Z,100.00
2022-10-22T05:33:47.466Z,100.00
2022-10-22T05:36:17.863Z,100.00
2022-10-22T05:38:44.816Z,100.00
2022-10-22T05:41:15.851Z,100.00
2022-10-22T05:43:42.741Z,100.00
2022-10-22T05:46:17.630Z,100.00
2022-10-22T05:48:56.981Z,100.00
2022-10-22T05:51:24.486Z,100.00
2022-10-22T05:53:53.519Z,100.00
2022-10-22T05:56:20.961Z,100.00
2022-10-22T05:58:47.774Z,100.00
2022-10-22T06:01:18.163Z,100.00
2022-10-22T06:03:45.561Z,100.00
2022-10-22T06:06:22.162Z,100.00
2022-10-22T06:08:50.321Z,100.00
2022-10-22T06:11:18.986Z,100.00
2022-10-22T06:13:46.081Z,100.00
2022-10-22T06:16:12.756Z,100.00
2022-10-22T06:18:39.350Z,100.00
2022-10-22T06:21:07.595Z,100.00
2022-10-22T06:23:34.855Z,100.00
2022-10-22T06:26:01.571Z,100.00
2022-10-22T06:28:28.642Z,100.00
2022-10-22T06:30:57.737Z,100.00
2022-10-22T06:33:24.538Z,100.00
2022-10-22T06:35:50.935Z,100.00
2022-10-22T06:38:17.400Z,100.00
2022-10-22T06:40:44.887Z,100.00
2022-10-22T06:43:14.836Z,100.00
2022-10-22T06:45:41.322Z,100.00
2022-10-22T06:48:07.792Z,100.00
2022-10-22T06:50:35.200Z,100.00
2022-10-22T06:53:01.665Z,100.00
2022-10-22T06:55:28.457Z,100.00
2022-10-22T06:57:55.556Z,100.00
2022-10-22T07:00:22.552Z,100.00
2022-10-22T07:02:56.424Z,100.00
2022-10-22T07:05:25.535Z,100.00
2022-10-22T07:07:51.964Z,100.00
2022-10-22T07:10:18.498Z,100.00
2022-10-22T07:12:44.911Z,100.00
2022-10-22T07:15:11.604Z,100.00
2022-10-22T07:17:38.033Z,100.00
2022-10-22T07:20:05.085Z,100.00
2022-10-22T07:22:31.507Z,100.00
2022-10-22T07:24:57.876Z,100.00
2022-10-22T07:27:24.577Z,100.00
2022-10-22T07:29:50.948Z,100.00
2022-10-22T07:32:19.645Z,100.00
2022-10-22T07:34:49.409Z,100.00
2022-10-22T07:37:15.799Z,100.00
2022-10-22T07:39:42.200Z,100.00
2022-10-22T07:42:08.592Z,100.00
2022-10-22T07:44:35.060Z,100.00
2022-10-22T07:47:01.503Z,100.00
2022-10-22T07:49:27.931Z,100.00
2022-10-22T07:51:54.319Z,100.00
2022-10-22T07:54:20.729Z,100.00
2022-10-22T07:56:47.103Z,100.00
2022-10-22T07:59:13.624Z,100.00
2022-10-22T08:01:40.310Z,100.00
2022-10-22T08:04:08.286Z,100.00
2022-10-22T08:06:35.995Z,100.00
2022-10-22T08:09:02.809Z,100.00
2022-10-22T08:11:29.287Z,100.00
2022-10-22T08:13:55.685Z,100.00
2022-10-22T08:16:22.067Z,100.00
2022-10-22T08:18:48.447Z,100.00
2022-10-22T08:21:14.823Z,100.00
2022-10-22T08:23:41.304Z,100.00
2022-10-22T08:26:08.058Z,100.00
2022-10-22T08:28:36.988Z,100.00
2022-10-22T08:31:05.711Z,100.00
2022-10-22T08:33:32.148Z,100.00
2022-10-22T08:35:58.580Z,100.00
2022-10-22T08:38:24.997Z,100.00
2022-10-22T08:40:56.660Z,100.00
2022-10-22T08:43:37.291Z,100.00
2022-10-22T08:46:34.007Z,100.00
2022-10-22T08:49:02.960Z,100.00
2022-10-22T08:51:36.860Z,100.00
2022-10-22T08:54:30.573Z,100.00
2022-10-22T08:57:20.154Z,100.00
2022-10-22T08:59:53.037Z,100.00
2022-10-22T09:02:48.180Z,100.00
2022-10-22T09:05:38.872Z,100.00
2022-10-22T09:08:09.465Z,100.00
2022-10-22T09:10:38.749Z,100.00
2022-10-22T09:13:05.205Z,100.00
2022-10-22T09:15:31.636Z,100.00
2022-10-22T09:18:30.568Z,100.00
2022-10-22T09:21:02.835Z,100.00
2022-10-22T09:23:35.900Z,100.00
2022-10-22T09:26:02.913Z,100.00
2022-10-22T09:28:29.337Z,100.00
2022-10-22T09:30:55.838Z,99.99
2022-10-22T09:33:28.137Z,100.00
2022-10-22T09:35:58.452Z,100.00
2022-10-22T09:38:28.042Z,98.48
2022-10-22T09:40:56.512Z,98.37
2022-10-22T09:43:23.460Z,97.96
2022-10-22T09:46:05.872Z,97.84
2022-10-22T09:48:39.153Z,98.33
2022-10-22T09:51:05.730Z,97.63
2022-10-22T09:53:38.842Z,96.24
2022-10-22T09:56:25.816Z,96.94
2022-10-22T09:58:52.831Z,97.21
2022-10-22T10:01:25.169Z,95.35
2022-10-22T10:03:51.988Z,95.77
2022-10-22T10:06:23.478Z,95.57
2022-10-22T10:08:50.312Z,95.34
2022-10-22T10:11:29.068Z,94.77
2022-10-22T10:14:12.858Z,94.78
2022-10-22T10:16:54.432Z,94.57
2022-10-22T10:19:40.810Z,94.21
2022-10-22T10:22:29.869Z,92.07
2022-10-22T10:25:10.090Z,92.82
2022-10-22T10:28:01.271Z,91.91
2022-10-22T10:30:27.813Z,91.24
2022-10-22T10:33:10.558Z,90.64
2022-10-22T10:35:48.714Z,89.76
2022-10-22T10:38:37.073Z,89.48
2022-10-22T10:41:23.568Z,89.20
2022-10-22T10:44:15.899Z,88.50
2022-10-22T10:46:52.979Z,87.89
2022-10-22T10:49:25.305Z,87.80
2022-10-22T10:52:16.291Z,87.14
2022-10-22T10:54:51.014Z,87.75
2022-10-22T10:57:34.254Z,86.05
2022-10-22T11:00:11.781Z,86.16
2022-10-22T11:03:03.144Z,84.73
2022-10-22T11:05:54.080Z,86.16
2022-10-22T11:09:08.004Z,86.36
2022-10-22T11:11:42.012Z,86.66
2022-10-22T11:14:23.442Z,85.36
2022-10-22T11:17:16.877Z,85.70
2022-10-22T11:20:00.210Z,85.75
2022-10-22T11:22:50.509Z,84.12
2022-10-22T11:25:43.297Z,84.97
2022-10-22T11:28:17.105Z,82.94
2022-10-22T11:30:49.383Z,83.62
2022-10-22T11:33:22.020Z,82.81
2022-10-22T11:35:49.456Z,82.59
2022-10-22T11:38:22.208Z,82.72
2022-10-22T11:40:51.385Z,81.32
2022-10-22T11:43:31.728Z,82.34
2022-10-22T11:46:04.253Z,80.02
2022-10-22T11:48:37.499Z,79.30
2022-10-22T11:51:24.529Z,79.05
2022-10-22T11:53:57.031Z,79.08
2022-10-22T11:56:27.901Z,79.23
2022-10-22T11:58:55.509Z,79.22
2022-10-22T12:01:25.486Z,79.54
2022-10-22T12:03:57.907Z,79.16
2022-10-22T12:06:28.774Z,79.34
2022-10-22T12:09:04.630Z,79.07
2022-10-22T12:11:50.091Z,77.35
2022-10-22T12:14:22.922Z,77.92
2022-10-22T12:17:09.889Z,79.33
2022-10-22T12:19:39.676Z,78.39
2022-10-22T12:22:05.997Z,78.65
2022-10-22T12:24:37.105Z,78.38
2022-10-22T12:27:04.132Z,77.69
2022-10-22T12:29:32.773Z,78.14
2022-10-22T12:32:04.108Z,77.55
2022-10-22T12:34:30.488Z,76.70
2022-10-22T12:36:56.935Z,76.88
2022-10-22T12:39:27.120Z,76.64
2022-10-22T12:41:54.460Z,77.36
2022-10-22T12:44:20.880Z,76.29
2022-10-22T12:46:51.772Z,74.14
2022-10-22T12:49:24.806Z,75.29
2022-10-22T12:51:51.237Z,74.48
2022-10-22T12:54:30.463Z,74.41
2022-10-22T12:56:58.503Z,74.59
2022-10-22T12:59:35.388Z,73.21
2022-10-22T13:02:06.784Z,72.08
2022-10-22T13:04:37.273Z,72.04
2022-10-22T13:07:05.568Z,72.38
2022-10-22T13:09:47.451Z,73.63
2022-10-22T13:12:16.644Z,73.37
2022-10-22T13:14:44.907Z,72.79
2022-10-22T13:17:20.189Z,72.53
2022-10-22T13:19:54.544Z,72.98
2022-10-22T13:22:29.365Z,73.42
2022-10-22T13:27:24.497Z,73.42
2022-10-22T13:29:51.020Z,72.23
2022-10-22T13:32:27.740Z,72.01
2022-10-22T13:34:56.082Z,72.98
2022-10-22T13:37:22.628Z,72.23
2022-10-22T13:39:49.048Z,73.23
2022-10-22T13:42:15.501Z,73.86
2022-10-22T13:44:41.930Z,73.25
2022-10-22T13:47:40.624Z,74.27
2022-10-22T13:50:14.840Z,75.37
2022-10-22T13:52:45.076Z,75.87
2022-10-22T13:55:22.147Z,75.58
2022-10-22T13:57:49.599Z,76.53
2022-10-22T14:00:21.280Z,76.56
2022-10-22T14:02:51.989Z,76.92
2022-10-22T14:05:19.058Z,77.04
2022-10-22T14:07:46.092Z,77.55
2022-10-22T14:10:21.655Z,77.77
2022-10-22T14:12:52.386Z,77.49
2022-10-22T14:15:26.359Z,77.17
2022-10-22T14:17:56.701Z,78.62
2022-10-22T14:20:27.692Z,78.19
2022-10-22T14:22:54.641Z,78.08
2022-10-22T14:25:23.754Z,78.77
2022-10-22T14:27:50.653Z,78.98
2022-10-22T14:30:25.170Z,78.69
2022-10-22T14:32:52.156Z,78.59
2022-10-22T14:35:22.084Z,79.29
2022-10-22T14:37:48.821Z,79.02
2022-10-22T14:40:17.923Z,79.24
2022-10-22T14:42:48.720Z,79.73
2022-10-22T14:45:24.515Z,80.78
2022-10-22T14:47:54.769Z,80.76
2022-10-22T14:50:21.803Z,80.77
2022-10-22T14:52:48.485Z,80.45
2022-10-22T14:55:16.820Z,80.73
2022-10-22T14:57:44.042Z,80.32
2022-10-22T15:00:14.608Z,81.44
2022-10-22T15:02:41.340Z,81.26
2022-10-22T15:05:08.557Z,81.69
2022-10-22T15:07:35.857Z,82.29
2022-10-22T15:10:02.496Z,82.23
2022-10-22T15:12:28.929Z,83.01
2022-10-22T15:14:55.334Z,83.35
2022-10-22T15:17:21.815Z,83.35
2022-10-22T15:19:48.354Z,83.38
2022-10-22T15:22:15.832Z,83.28
2022-10-22T15:24:45.194Z,83.83
2022-10-22T15:27:14.943Z,83.70
2022-10-22T15:29:42.412Z,83.74
2022-10-22T15:32:10.395Z,82.78
2022-10-22T15:34:38.638Z,82.92
2022-10-22T15:37:08.426Z,82.98
2022-10-22T15:39:35.611Z,83.21
2022-10-22T15:42:02.068Z,84.16
2022-10-22T15:44:31.969Z,83.62
2022-10-22T15:46:58.880Z,83.33
2022-10-22T15:49:27.286Z,83.15
2022-10-22T15:51:54.832Z,83.36
2022-10-22T15:54:24.467Z,84.00
2022-10-22T15:56:51.129Z,83.85
2022-10-22T15:59:17.816Z,84.31
2022-10-22T16:01:44.490Z,83.89
2022-10-22T16:04:11.159Z,83.79
2022-10-22T16:06:44.017Z,83.95
2022-10-22T16:09:16.030Z,84.79
2022-10-22T16:11:42.896Z,84.79
2022-10-22T16:14:12.051Z,85.59
2022-10-22T16:16:42.560Z,85.44
2022-10-22T16:19:13.745Z,86.42
2022-10-22T16:21:40.375Z,86.22
2022-10-22T16:24:08.364Z,87.05
2022-10-22T16:26:35.529Z,87.33
2022-10-22T16:29:02.503Z,87.10
2022-10-22T16:31:28.911Z,87.48
2022-10-22T16:33:55.432Z,88.15
2022-10-22T16:36:22.297Z,88.30
2022-10-22T16:38:48.903Z,88.31
2022-10-22T16:41:20.803Z,88.80
2022-10-22T16:43:50.509Z,89.39
2022-10-22T16:46:19.392Z,89.40
2022-10-22T16:48:47.237Z,89.43
2022-10-22T16:51:16.076Z,89.58
2022-10-22T16:53:42.977Z,90.28
2022-10-22T16:56:11.400Z,89.66
2022-10-22T16:58:39.061Z,89.78
2022-10-22T17:01:07.955Z,90.22
2022-10-22T17:03:35.342Z,90.71
2022-10-22T17:06:03.952Z,89.76
2022-10-22T17:08:34.918Z,90.65
2022-10-22T17:11:11.234Z,90.42
2022-10-22T17:13:39.618Z,91.14
2022-10-22T17:16:08.976Z,91.05
2022-10-22T17:18:36.920Z,91.29
2022-10-22T17:21:04.874Z,90.46
2022-10-22T17:23:31.769Z,91.51
2022-10-22T17:26:06.150Z,91.39
2022-10-22T17:28:33.374Z,91.22
2022-10-22T17:31:21.642Z,91.80
2022-10-22T17:33:49.957Z,91.93
2022-10-22T17:36:18.008Z,92.42
2022-10-22T17:38:51.799Z,91.93
2022-10-22T17:41:21.365Z,92.16
2022-10-22T17:43:48.258Z,91.97
2022-10-22T17:46:26.844Z,92.17
2022-10-22T17:49:02.264Z,92.06
2022-10-22T17:51:30.930Z,92.42
2022-10-22T17:53:57.473Z,92.89
2022-10-22T17:56:29.809Z,92.94
2022-10-22T17:58:56.547Z,93.13
2022-10-22T18:01:29.142Z,93.06
2022-10-22T18:03:59.499Z,93.49
2022-10-22T18:06:26.303Z,93.84
2022-10-22T18:11:22.093Z,94.60
2022-10-22T18:13:50.403Z,95.01
2022-10-22T18:16:17.733Z,95.20
2022-10-22T18:18:55.612Z,95.16
2022-10-22T18:21:24.535Z,95.11
2022-10-22T18:23:50.979Z,94.88
2022-10-22T18:26:20.253Z,95.23
2022-10-22T18:28:49.308Z,95.42
2022-10-22T18:31:21.017Z,95.50
2022-10-22T18:33:48.436Z,95.48
2022-10-22T18:36:20.501Z,95.12
2022-10-22T18:38:58.203Z,95.12
2022-10-22T18:41:25.643Z,95.20
2022-10-22T18:43:54.203Z,95.18
2022-10-22T18:46:21.062Z,95.37
2022-10-22T18:48:48.019Z,96.08
2022-10-22T18:51:14.793Z,95.96
2022-10-22T18:53:42.395Z,95.93
2022-10-22T18:56:12.996Z,95.72
2022-10-22T18:58:40.722Z,95.71
2022-10-22T19:01:13.419Z,95.83
2022-10-22T19:03:41.065Z,95.83
2022-10-22T19:06:07.927Z,95.61
2022-10-22T19:08:36.908Z,96.15
2022-10-22T19:11:09.980Z,96.10
2022-10-22T19:13:36.959Z,96.55
2022-10-22T19:16:06.019Z,96.49
2022-10-22T19:18:33.449Z,95.78
2022-10-22T19:21:00.970Z,95.37
2022-10-22T19:23:30.130Z,95.61
2022-10-22T19:26:16.505Z,95.59
2022-10-22T19:28:43.535Z,95.95
2022-10-22T19:31:12.774Z,96.02
2022-10-22T19:33:40.094Z,96.37
2022-10-22T19:36:09.183Z,96.34
2022-10-22T19:38:39.354Z,96.85
2022-10-22T19:41:07.260Z,96.57
2022-10-22T19:43:34.110Z,96.50
2022-10-22T19:46:00.604Z,96.79
2022-10-22T19:48:28.618Z,96.69
2022-10-22T19:51:00.043Z,96.69
2022-10-22T19:53:26.478Z,96.63
2022-10-22T19:55:52.865Z,96.51
2022-10-22T19:58:19.366Z,96.72
2022-10-22T20:00:45.845Z,96.52
2022-10-22T20:03:14.572Z,96.38
2022-10-22T20:05:42.606Z,96.53
2022-10-22T20:08:10.864Z,97.01
2022-10-22T20:10:37.636Z,96.96
2022-10-22T20:13:04.281Z,97.21
2022-10-22T20:15:34.392Z,97.55
2022-10-22T20:18:00.866Z,97.54
2022-10-22T20:20:27.277Z,98.31
2022-10-22T20:22:54.324Z,97.89
2022-10-22T20:25:20.771Z,98.37
2022-10-22T20:27:47.216Z,98.21
2022-10-22T20:30:14.188Z,97.67
2022-10-22T20:32:41.095Z,98.17
2022-10-22T20:35:08.003Z,98.10
2022-10-22T20:37:34.481Z,97.80
2022-10-22T20:40:00.848Z,98.07
2022-10-22T20:42:27.308Z,97.69
2022-10-22T20:44:53.667Z,98.07
2022-10-22T20:47:20.062Z,97.68
2022-10-22T20:49:46.431Z,98.14
2022-10-22T20:52:12.808Z,97.72
2022-10-22T20:54:42.390Z,98.33
2022-10-22T20:57:08.853Z,97.91
2022-10-22T20:59:35.852Z,97.92
2022-10-22T21:02:02.591Z,97.93
2022-10-22T21:04:29.692Z,97.91
2022-10-22T21:06:57.506Z,97.93
2022-10-22T21:09:25.066Z,98.19
2022-10-22T21:14:23.060Z,98.14
2022-10-22T21:16:51.088Z,98.74
2022-10-22T21:19:22.466Z,99.11
2022-10-22T21:21:49.418Z,98.87
2022-10-22T21:24:15.885Z,98.74
2022-10-22T21:26:43.663Z,99.31
2022-10-22T21:29:13.535Z,98.70
2022-10-22T21:31:40.379Z,99.02
2022-10-22T21:34:07.084Z,99.14
2022-10-22T21:36:33.514Z,99.33
2022-10-22T21:39:01.132Z,99.51
2022-10-22T21:41:27.510Z,99.58
2022-10-22T21:43:53.901Z,99.98
2022-10-22T21:46:22.835Z,100.00
2022-10-22T21:48:54.162Z,99.69
2022-10-22T21:51:21.391Z,99.58
2022-10-22T21:53:48.022Z,99.18
2022-10-22T21:56:28.010Z,99.33
2022-10-22T21:58:54.523Z,99.33
2022-10-22T22:01:21.943Z,99.47
2022-10-22T22:03:50.402Z,99.60
2022-10-22T22:06:21.427Z,99.49
2022-10-22T22:08:49.415Z,99.51
2022-10-22T22:11:18.493Z,99.40
2022-10-22T22:13:45.145Z,99.43
2022-10-22T22:16:14.229Z,99.72
2022-10-22T22:18:41.559Z,100.00
2022-10-22T22:21:10.891Z,99.87
2022-10-22T22:23:39.508Z,100.00
2022-10-22T22:26:06.438Z,100.00
2022-10-22T22:28:34.048Z,100.00
2022-10-22T22:31:00.677Z,100.00
2022-10-22T22:33:27.643Z,100.00
2022-10-22T22:35:58.606Z,100.00
2022-10-22T22:38:25.163Z,100.00
2022-10-22T22:40:51.556Z,99.91
2022-10-22T22:43:17.969Z,100.00
2022-10-22T22:45:44.378Z,100.00
2022-10-22T22:48:10.780Z,100.00
2022-10-22T22:50:37.168Z,100.00
2022-10-22T22:53:03.572Z,100.00
2022-10-22T22:55:31.874Z,100.00
2022-10-22T22:57:58.649Z,100.00
2022-10-22T23:00:25.069Z,100.00
2022-10-22T23:02:55.312Z,100.00
2022-10-22T23:05:21.768Z,100.00
2022-10-22T23:07:48.942Z,100.00
2022-10-22T23:10:15.424Z,100.00
2022-10-22T23:12:41.978Z,100.00
2022-10-22T23:15:08.875Z,100.00
2022-10-22T23:20:03.664Z,100.00
2022-10-22T23:22:30.095Z,100.00
2022-10-22T23:24:56.498Z,100.00
2022-10-22T23:27:22.899Z,100.00
2022-10-22T23:29:49.287Z,100.00
2022-10-22T23:32:15.687Z,100.00
2022-10-22T23:34:42.228Z,100.00
2022-10-22T23:37:11.873Z,100.00
2022-10-22T23:39:38.300Z,100.00
2022-10-22T23:42:04.886Z,100.00
2022-10-22T23:44:31.280Z,100.00
2022-10-22T23:46:57.698Z,100.00
2022-10-22T23:49:24.107Z,100.00
2022-10-22T23:51:50.537Z,100.00
2022-10-22T23:54:18.487Z,100.00
2022-10-22T23:56:45.665Z,100.00
